Time;durP1;ratioP1;P1;durP2;ratioP2;P2;SDS_P1;SDS_P2;PMS_P1;PMS_P2;Temp;Humidity;BMP_temperature;BMP_pressure;BME280_temperature;BME280_humidity;BME280_pressure;Samples;Min_cycle;Max_cycle;Signal;HPM_P1;HPM_P2
2021/11/25 00:02:18;;;;;;;25.25;14.38;;;;;;;1.56;81.67;100097.92;1663208;84;20931;-68
2021/11/25 00:04:45;;;;;;;27.77;16.07;;;;;;;1.56;81.68;100100.63;1692884;83;21075;-68
2021/11/25 00:07:12;;;;;;;27.13;15.85;;;;;;;1.58;81.82;100099.84;1683069;84;20915;-67
2021/11/25 00:09:39;;;;;;;25.23;15.32;;;;;;;1.59;81.84;100102.84;1661008;84;21165;-69
2021/11/25 00:12:07;;;;;;;23.67;14.58;;;;;;;1.59;81.87;100096.08;1665838;84;20876;-68
2021/11/25 00:14:36;;;;;;;22.67;13.78;;;;;;;1.59;81.79;100105.55;1662497;84;21581;-68
2021/11/25 00:17:03;;;;;;;26.15;14.07;;;;;;;1.59;81.80;100099.61;1662123;84;20956;-68
2021/11/25 00:19:32;;;;;;;23.95;14.18;;;;;;;1.60;81.72;100105.84;1663144;86;20869;-68
2021/11/25 00:21:59;;;;;;;23.47;13.68;;;;;;;1.62;81.75;100099.66;1687224;83;21132;-68
2021/11/25 00:24:25;;;;;;;25.48;13.78;;;;;;;1.62;81.82;100098.30;1665305;84;20951;-68
2021/11/25 00:26:52;;;;;;;23.95;13.60;;;;;;;1.62;81.88;100101.00;1670290;84;20900;-68
2021/11/25 00:29:18;;;;;;;27.17;13.93;;;;;;;1.61;81.97;100090.71;1664101;85;20992;-68
2021/11/25 00:31:46;;;;;;;25.20;14.80;;;;;;;1.61;82.03;100091.24;1665743;84;21553;-68
2021/11/25 00:34:12;;;;;;;26.42;13.93;;;;;;;1.61;82.10;100093.95;1642895;85;21168;-67
2021/11/25 00:36:39;;;;;;;23.32;13.68;;;;;;;1.59;82.20;100092.84;1693128;83;21043;-70
2021/11/25 00:39:07;;;;;;;24.87;13.72;;;;;;;1.59;82.30;100090.66;1666635;85;21020;-71
2021/11/25 00:41:34;;;;;;;19.25;12.10;;;;;;;1.59;82.39;100083.90;1688921;83;21067;-70
2021/11/25 00:44:01;;;;;;;26.60;14.10;;;;;;;1.57;82.48;100079.27;1694660;84;20916;-72
2021/11/25 00:46:28;;;;;;;25.65;13.53;;;;;;;1.58;82.62;100072.78;1694899;84;21924;-69
2021/11/25 00:48:57;;;;;;;25.25;14.43;;;;;;;1.58;82.81;100078.20;1665108;85;21071;-70
2021/11/25 00:51:23;;;;;;;31.87;14.68;;;;;;;1.57;82.91;100073.32;1665381;86;20904;-68
2021/11/25 00:53:51;;;;;;;25.50;13.98;;;;;;;1.54;83.05;100076.52;1667144;84;20967;-67
2021/11/25 00:56:17;;;;;;;27.42;14.20;;;;;;;1.54;83.16;100070.28;1666030;86;20868;-67
2021/11/25 00:58:44;;;;;;;25.05;13.50;;;;;;;1.53;83.22;100068.64;1662696;84;21167;-67
2021/11/25 01:01:11;;;;;;;24.95;13.93;;;;;;;1.53;83.31;100072.16;1637579;86;20940;-67
2021/11/25 01:03:37;;;;;;;25.57;14.15;;;;;;;1.52;83.32;100066.47;1664368;84;21490;-69
2021/11/25 01:06:06;;;;;;;24.27;13.65;;;;;;;1.52;83.33;100069.70;1664886;84;20991;-70
2021/11/25 01:08:34;;;;;;;25.23;13.65;;;;;;;1.52;83.40;100064.29;1665672;84;20907;-69
2021/11/25 01:11:02;;;;;;;29.90;14.60;;;;;;;1.52;83.54;100069.17;1703358;83;21976;-69
2021/11/25 01:13:29;;;;;;;26.93;14.95;;;;;;;1.52;83.49;100062.94;1683271;84;20932;-69
2021/11/25 01:15:55;;;;;;;24.50;13.38;;;;;;;1.52;83.45;100060.23;1682969;83;21039;-69
2021/11/25 01:18:22;;;;;;;27.85;13.85;;;;;;;1.55;83.43;100062.45;1700006;84;20934;-69
2021/11/25 01:20:50;;;;;;;23.10;12.90;;;;;;;1.55;83.52;100066.51;1697033;83;20959;-68
2021/11/25 01:23:20;;;;;;;23.70;13.53;;;;;;;1.54;83.57;100051.34;1695512;83;21505;-70
2021/11/25 01:25:50;;;;;;;27.40;15.40;;;;;;;1.54;83.58;100062.98;1696735;84;20983;-69
2021/11/25 01:28:17;;;;;;;26.07;14.28;;;;;;;1.54;83.73;100052.16;1690544;83;20947;-68
2021/11/25 01:30:47;;;;;;;24.07;13.80;;;;;;;1.54;83.74;100062.98;1700386;83;20879;-69
2021/11/25 01:33:14;;;;;;;27.70;14.75;;;;;;;1.54;83.77;100054.86;1693328;83;21465;-69
2021/11/25 01:35:40;;;;;;;25.97;14.13;;;;;;;1.54;83.85;100055.40;1692345;83;21106;-70
2021/11/25 01:38:07;;;;;;;22.77;13.03;;;;;;;1.56;83.86;100050.56;1694098;83;20880;-72
2021/11/25 01:40:36;;;;;;;22.10;13.90;;;;;;;1.58;83.88;100052.48;1691044;83;21037;-70
2021/11/25 01:43:03;;;;;;;24.02;13.18;;;;;;;1.59;83.82;100057.66;1695000;83;20964;-71
2021/11/25 01:45:29;;;;;;;22.82;13.22;;;;;;;1.59;83.92;100057.66;1710998;83;20988;-70
2021/11/25 01:47:57;;;;;;;29.42;14.30;;;;;;;1.59;84.04;100059.02;1699479;83;21083;-71
2021/11/25 01:50:25;;;;;;;26.93;14.40;;;;;;;1.60;84.08;100054.42;1693278;83;21006;-71
2021/11/25 01:52:52;;;;;;;26.87;13.70;;;;;;;1.62;84.16;100061.77;1695085;83;20908;-71
2021/11/25 01:55:20;;;;;;;23.62;13.30;;;;;;;1.62;84.13;100063.12;1690836;83;20963;-70
2021/11/25 01:57:49;;;;;;;25.17;13.40;;;;;;;1.62;84.16;100059.88;1695158;84;21524;-71
2021/11/25 02:00:27;;;;;;;24.70;13.35;;;;;;;1.64;84.15;100060.98;1689949;83;21167;-71
2021/11/25 02:02:56;;;;;;;26.42;13.88;;;;;;;1.63;84.20;100060.16;1693517;83;20995;-73
2021/11/25 02:05:23;;;;;;;24.47;13.53;;;;;;;1.63;84.26;100062.05;1696988;83;20915;-72
2021/11/25 02:07:49;;;;;;;24.55;13.15;;;;;;;1.64;84.33;100063.70;1705685;83;21450;-72
2021/11/25 02:10:16;;;;;;;23.35;12.90;;;;;;;1.64;84.37;100059.63;1710343;83;21457;-71
2021/11/25 02:12:43;;;;;;;21.15;12.00;;;;;;;1.64;84.39;100064.52;1690141;83;21115;-71
2021/11/25 02:15:11;;;;;;;25.27;13.45;;;;;;;1.64;84.47;100064.52;1679713;85;21522;-70
2021/11/25 02:17:37;;;;;;;23.05;12.80;;;;;;;1.64;84.42;100062.34;1686588;84;21582;-71
2021/11/25 02:20:06;;;;;;;20.27;12.07;;;;;;;1.65;84.48;100062.62;1690855;83;21025;-71
2021/11/25 02:22:33;;;;;;;27.52;13.18;;;;;;;1.65;84.54;100064.80;1645433;86;20908;-70
2021/11/25 02:24:59;;;;;;;21.87;13.08;;;;;;;1.66;84.62;100061.56;1662181;85;21807;-69
2021/11/25 02:27:26;;;;;;;27.07;13.08;;;;;;;1.68;84.66;100060.78;1711989;82;21002;-69
2021/11/25 02:29:53;;;;;;;21.05;12.70;;;;;;;1.69;84.67;100059.72;1712185;82;21050;-71
2021/11/25 02:32:35;;;;;;;23.10;13.03;;;;;;;1.68;84.74;100060.78;1704298;81;21137;-71
2021/11/25 02:35:04;;;;;;;22.77;12.78;;;;;;;1.68;84.81;100058.08;1709886;83;21415;-71
2021/11/25 02:37:32;;;;;;;26.55;12.37;;;;;;;1.67;84.87;100059.14;1705692;83;21750;-71
2021/11/25 02:39:58;;;;;;;24.80;12.80;;;;;;;1.67;85.00;100059.14;1712799;83;20955;-74
2021/11/25 02:42:25;;;;;;;22.93;11.95;;;;;;;1.68;85.09;100048.61;1707380;83;21113;-74
2021/11/25 02:44:52;;;;;;;22.13;12.70;;;;;;;1.68;85.17;100051.84;1707556;83;20999;-73
2021/11/25 02:47:19;;;;;;;23.27;13.05;;;;;;;1.67;85.33;100046.97;1701351;83;21066;-74
2021/11/25 02:49:46;;;;;;;21.05;12.63;;;;;;;1.66;85.42;100049.38;1708484;83;21159;-74
2021/11/25 02:52:12;;;;;;;21.10;12.40;;;;;;;1.65;85.48;100045.03;1710017;83;20952;-74
2021/11/25 02:54:40;;;;;;;23.60;13.55;;;;;;;1.65;85.65;100039.09;1722418;82;21039;-74
2021/11/25 02:57:07;;;;;;;24.07;13.80;;;;;;;1.65;85.67;100042.33;1645604;83;20964;-76
2021/11/25 02:59:33;;;;;;;23.27;13.38;;;;;;;1.65;85.84;100044.50;1689684;82;20876;-73
2021/11/25 03:01:59;;;;;;;23.30;12.93;;;;;;;1.64;85.97;100042.04;1706919;83;21235;-72
2021/11/25 03:04:26;;;;;;;23.10;13.75;;;;;;;1.63;86.05;100040.40;1702450;83;21526;-73
2021/11/25 03:06:52;;;;;;;24.72;12.90;;;;;;;1.63;86.19;100039.05;1700312;82;20948;-70
2021/11/25 03:09:20;;;;;;;21.85;12.68;;;;;;;1.63;86.18;100037.70;1703175;81;21052;-69
2021/11/25 03:11:47;;;;;;;20.65;12.78;;;;;;;1.63;86.32;100033.63;1700602;83;20984;-69
2021/11/25 03:14:14;;;;;;;22.20;12.70;;;;;;;1.64;86.34;100036.63;1691032;83;21964;-70
2021/11/25 03:16:43;;;;;;;22.62;12.95;;;;;;;1.62;86.42;100035.52;1692200;83;20939;-69
2021/11/25 03:19:12;;;;;;;23.25;12.15;;;;;;;1.61;86.45;100032.53;1666655;84;20940;-70
2021/11/25 03:21:39;;;;;;;19.90;11.90;;;;;;;1.62;86.46;100034.70;1696729;82;21475;-70
2021/11/25 03:24:06;;;;;;;28.07;13.43;;;;;;;1.61;86.51;100034.41;1708293;83;21070;-69
2021/11/25 03:26:33;;;;;;;21.45;11.63;;;;;;;1.60;86.62;100028.71;1700456;81;21144;-70
2021/11/25 03:29:00;;;;;;;21.77;12.80;;;;;;;1.59;86.66;100027.07;1691659;83;21557;-73
2021/11/25 03:31:29;;;;;;;23.27;12.00;;;;;;;1.59;86.74;100027.07;1699008;84;21015;-72
2021/11/25 03:33:58;;;;;;;21.00;12.82;;;;;;;1.60;86.78;100027.36;1695577;83;21047;-74
2021/11/25 03:36:26;;;;;;;24.82;13.75;;;;;;;1.59;86.82;100026.54;1690163;83;38064;-75
2021/11/25 03:38:53;;;;;;;21.97;12.55;;;;;;;1.59;86.89;100025.19;1701917;81;21173;-71
2021/11/25 03:41:22;;;;;;;24.90;13.75;;;;;;;1.59;87.01;100020.30;1699258;83;20980;-71
2021/11/25 03:43:49;;;;;;;32.23;14.23;;;;;;;1.59;87.12;100019.77;1717264;82;21525;-70
2021/11/25 03:46:15;;;;;;;21.00;12.25;;;;;;;1.58;87.13;100020.84;1718466;81;21064;-69
2021/11/25 03:48:42;;;;;;;24.25;11.97;;;;;;;1.58;87.25;100021.38;1720167;83;20908;-69
2021/11/25 03:51:11;;;;;;;22.58;11.83;;;;;;;1.58;87.23;100021.38;1709372;81;21144;-70
2021/11/25 03:53:43;;;;;;;24.37;12.82;;;;;;;1.60;87.29;100023.30;1709132;83;21499;-70
2021/11/25 03:56:12;;;;;;;20.85;12.43;;;;;;;1.60;87.29;100019.24;1711131;83;20951;-71
2021/11/25 03:58:39;;;;;;;23.07;11.65;;;;;;;1.60;87.34;100020.59;1705751;83;21023;-71
2021/11/25 04:01:07;;;;;;;22.87;12.63;;;;;;;1.60;87.36;100020.59;1708349;83;21573;-69
2021/11/25 04:03:34;;;;;;;21.15;12.73;;;;;;;1.59;87.40;100018.95;1722345;83;21466;-69
2021/11/25 04:06:01;;;;;;;20.90;11.83;;;;;;;1.59;87.49;100025.19;1723541;83;20924;-70
2021/11/25 04:08:28;;;;;;;28.80;13.25;;;;;;;1.59;87.54;100017.60;1695145;83;20997;-69
2021/11/25 04:10:55;;;;;;;20.82;12.70;;;;;;;1.59;87.57;100019.77;1722966;82;20943;-70
2021/11/25 04:13:23;;;;;;;23.07;11.78;;;;;;;1.59;87.60;100014.36;1720518;81;20911;-69
2021/11/25 04:15:52;;;;;;;23.25;12.53;;;;;;;1.59;87.62;100014.36;1723947;82;21104;-70
2021/11/25 04:18:19;;;;;;;22.98;12.98;;;;;;;1.59;87.66;100014.89;1737654;82;21031;-68
2021/11/25 04:20:46;;;;;;;30.05;13.32;;;;;;;1.60;87.75;100014.65;1721367;81;21003;-69
2021/11/25 04:23:14;;;;;;;22.07;12.73;;;;;;;1.59;87.76;100015.72;1726324;82;20978;-70
2021/11/25 04:25:41;;;;;;;22.73;12.43;;;;;;;1.58;87.76;100018.66;1726881;82;20907;-69
2021/11/25 04:28:09;;;;;;;25.40;13.28;;;;;;;1.59;87.83;100016.25;1728428;82;21121;-70
2021/11/25 04:30:51;;;;;;;24.95;13.22;;;;;;;1.59;87.80;100009.48;1730194;82;20983;-70
2021/11/25 04:35:51;;;;;;;26.95;14.40;;;;;;;1.58;87.88;100011.90;1709075;81;20952;-70
2021/11/25 04:38:21;;;;;;;22.93;12.63;;;;;;;1.58;87.87;100011.90;1694862;84;20979;-70
2021/11/25 04:40:54;;;;;;;20.97;12.82;;;;;;;1.58;87.90;100010.55;1692533;83;21137;-70
2021/11/25 04:43:22;;;;;;;28.27;13.98;;;;;;;1.60;87.89;100005.70;1692977;83;21075;-70
2021/11/25 04:45:50;;;;;;;20.35;11.28;;;;;;;1.61;87.87;100010.06;1690457;84;21055;-70
2021/11/25 04:48:20;;;;;;;22.55;12.37;;;;;;;1.61;87.84;100005.47;1691747;83;21752;-71
2021/11/25 04:50:47;;;;;;;22.10;12.37;;;;;;;1.63;87.87;99999.80;1694567;84;21015;-70
2021/11/25 04:53:16;;;;;;;31.05;13.22;;;;;;;1.64;87.82;99999.56;1688554;83;21166;-70
2021/11/25 04:55:43;;;;;;;20.48;12.58;;;;;;;1.64;87.70;100001.45;1693859;83;21458;-70
2021/11/25 04:58:11;;;;;;;26.20;13.98;;;;;;;1.65;87.65;99999.03;1660509;84;20935;-70
2021/11/25 05:00:38;;;;;;;25.48;13.88;;;;;;;1.66;87.60;100000.67;1697931;83;20951;-70
2021/11/25 05:03:07;;;;;;;24.23;13.43;;;;;;;1.67;87.55;100002.31;1694666;84;20971;-70
2021/11/25 05:05:34;;;;;;;30.50;13.90;;;;;;;1.69;87.50;100003.41;1687703;83;21148;-70
2021/11/25 05:08:01;;;;;;;25.55;14.05;;;;;;;1.71;87.44;99997.22;1692408;83;20912;-69
2021/11/25 05:10:30;;;;;;;25.80;14.98;;;;;;;1.70;87.45;99997.76;1690579;83;20925;-69
2021/11/25 05:12:56;;;;;;;24.82;14.70;;;;;;;1.70;87.49;99996.41;1679348;84;21481;-68
2021/11/25 05:15:23;;;;;;;24.27;13.50;;;;;;;1.70;87.49;99995.05;1695494;84;20936;-67
2021/11/25 05:17:51;;;;;;;25.52;14.30;;;;;;;1.71;87.49;99993.98;1694705;84;21123;-70
2021/11/25 05:20:18;;;;;;;28.23;14.50;;;;;;;1.71;87.53;99991.81;1693739;83;21537;-70
2021/11/25 05:22:44;;;;;;;27.17;14.00;;;;;;;1.70;87.54;99984.22;1682205;84;20913;-69
2021/11/25 05:25:13;;;;;;;34.65;16.45;;;;;;;1.70;87.67;99984.22;1684788;83;21016;-69
2021/11/25 05:27:39;;;;;;;24.12;13.78;;;;;;;1.70;87.69;99996.94;1703852;83;21118;-69
2021/11/25 05:30:09;;;;;;;27.58;14.87;;;;;;;1.69;87.80;99997.47;1706922;84;21121;-69
2021/11/25 05:32:38;;;;;;;30.35;16.32;;;;;;;1.69;87.78;99998.82;1696994;83;21082;-69
2021/11/25 05:35:06;;;;;;;26.07;14.93;;;;;;;1.68;87.77;99996.36;1694749;84;21430;-69
2021/11/25 05:37:34;;;;;;;28.23;15.32;;;;;;;1.67;87.89;99999.60;1692516;83;21027;-70
2021/11/25 05:40:03;;;;;;;29.67;14.95;;;;;;;1.67;87.88;100000.95;1667157;84;20908;-70
2021/11/25 05:42:31;;;;;;;30.72;15.63;;;;;;;1.65;87.96;99997.14;1684184;83;21196;-74
2021/11/25 05:44:59;;;;;;;32.53;15.78;;;;;;;1.65;88.11;99995.78;1696484;83;21480;-69
2021/11/25 05:47:26;;;;;;;30.17;16.15;;;;;;;1.68;88.17;99995.83;1690807;84;21039;-70
2021/11/25 05:49:53;;;;;;;31.82;17.77;;;;;;;1.69;88.18;100002.06;1697898;83;20956;-69
2021/11/25 05:52:20;;;;;;;32.17;17.45;;;;;;;1.71;88.23;100003.99;1692203;83;21018;-69
2021/11/25 05:54:47;;;;;;;38.17;20.05;;;;;;;1.71;88.25;99996.69;1722121;81;21128;-69
2021/11/25 05:57:13;;;;;;;39.18;21.45;;;;;;;1.71;88.25;100004.81;1723814;81;21423;-69
2021/11/25 05:59:40;;;;;;;30.92;16.42;;;;;;;1.72;88.31;100011.05;1721778;82;21418;-69
2021/11/25 06:02:07;;;;;;;33.33;17.30;;;;;;;1.72;88.41;100005.63;1724331;82;21878;-70
2021/11/25 06:04:35;;;;;;;35.78;16.70;;;;;;;1.70;88.40;99996.41;1723632;81;20912;-71
2021/11/25 06:07:03;;;;;;;29.00;16.75;;;;;;;1.70;88.53;99994.23;1723865;81;21054;-72
2021/11/25 06:09:31;;;;;;;31.90;16.42;;;;;;;1.69;88.58;99998.00;1731236;82;20864;-70
2021/11/25 06:11:58;;;;;;;27.02;14.80;;;;;;;1.70;88.58;100002.34;1706203;83;21527;-72
2021/11/25 06:14:24;;;;;;;26.90;16.45;;;;;;;1.71;88.68;99999.39;1716588;81;20959;-71
2021/11/25 06:16:51;;;;;;;33.45;16.25;;;;;;;1.71;88.71;99993.16;1723742;83;20928;-72
2021/11/25 06:19:18;;;;;;;30.55;16.57;;;;;;;1.70;88.76;99989.64;1723660;83;21207;-72
2021/11/25 06:21:45;;;;;;;34.67;18.30;;;;;;;1.70;88.78;99997.76;1725216;82;20943;-72
2021/11/25 06:24:12;;;;;;;34.43;19.10;;;;;;;1.72;88.87;99996.98;1730738;82;20864;-72
2021/11/25 06:26:42;;;;;;;29.92;16.97;;;;;;;1.73;88.88;99998.62;1725430;81;20912;-72
2021/11/25 06:29:07;;;;;;;30.70;16.80;;;;;;;1.74;88.96;99999.41;1720585;83;21027;-72
2021/11/25 06:31:34;;;;;;;33.95;18.23;;;;;;;1.75;89.03;100003.75;1721706;81;21149;-69
2021/11/25 06:34:01;;;;;;;30.60;17.75;;;;;;;1.75;89.02;99992.92;1695224;83;20923;-71
2021/11/25 06:36:28;;;;;;;30.23;16.20;;;;;;;1.75;89.04;100001.87;1723645;83;20952;-69
2021/11/25 06:38:55;;;;;;;32.58;17.00;;;;;;;1.76;89.18;100002.16;1722367;81;21177;-67
2021/11/25 06:41:21;;;;;;;33.28;17.82;;;;;;;1.76;89.21;100002.69;1723802;83;21420;-67
2021/11/25 06:43:48;;;;;;;30.37;16.93;;;;;;;1.78;89.28;100007.32;1716908;82;21142;-69
2021/11/25 06:46:15;;;;;;;32.78;17.65;;;;;;;1.80;89.39;100005.19;1707424;84;20901;-69
2021/11/25 06:48:42;;;;;;;31.77;17.50;;;;;;;1.80;89.43;99997.06;1721604;81;20872;-68
2021/11/25 06:51:08;;;;;;;39.13;19.45;;;;;;;1.83;89.41;100002.80;1723607;83;21055;-69
2021/11/25 06:53:35;;;;;;;32.20;17.70;;;;;;;1.83;89.46;100002.80;1721749;82;20903;-68
2021/11/25 06:56:02;;;;;;;34.50;19.92;;;;;;;1.88;89.54;100011.55;1733897;82;21116;-70
2021/11/25 06:58:29;;;;;;;30.43;18.27;;;;;;;1.91;89.54;100013.22;1738698;82;21490;-66
2021/11/25 07:00:56;;;;;;;29.37;17.10;;;;;;;1.94;89.46;100015.97;1726298;81;21537;-66
2021/11/25 07:03:23;;;;;;;38.63;18.90;;;;;;;1.95;89.37;100013.02;1719947;82;20940;-67
2021/11/25 07:05:50;;;;;;;36.38;18.98;;;;;;;1.96;89.30;100020.06;1722618;83;21014;-67
2021/11/25 07:08:18;;;;;;;34.70;19.07;;;;;;;1.98;89.33;100013.05;1708173;81;21216;-65
2021/11/25 07:10:44;;;;;;;38.78;19.55;;;;;;;2.01;89.37;100015.80;1664592;85;20888;-66
2021/11/25 07:13:11;;;;;;;31.12;17.87;;;;;;;2.03;89.34;100016.37;1692929;83;21397;-66
2021/11/25 07:15:38;;;;;;;38.38;19.12;;;;;;;2.05;89.44;100011.52;1697599;84;20975;-68
2021/11/25 07:18:06;;;;;;;38.23;18.45;;;;;;;2.07;89.28;100017.52;1694565;84;20979;-65
2021/11/25 07:20:33;;;;;;;31.15;17.40;;;;;;;2.09;89.34;100017.55;1698275;83;21134;-66
2021/11/25 07:23:00;;;;;;;33.13;18.32;;;;;;;2.13;89.10;100015.98;1710095;82;20908;-68
2021/11/25 07:25:26;;;;;;;32.88;18.05;;;;;;;2.13;89.06;100012.45;1678464;84;20995;-67
2021/11/25 07:27:54;;;;;;;39.50;18.48;;;;;;;2.15;88.95;100013.03;1721419;81;21730;-70
2021/11/25 07:30:21;;;;;;;37.78;18.25;;;;;;;2.15;88.91;100015.73;1711020;83;20971;-69
2021/11/25 07:32:48;;;;;;;35.25;18.70;;;;;;;2.17;88.92;100017.66;1645655;86;21241;-71
2021/11/25 07:35:19;;;;;;;27.93;16.17;;;;;;;2.18;88.95;100012.53;1663773;84;21628;-66
2021/11/25 07:37:45;;;;;;;34.60;18.27;;;;;;;2.19;88.89;100019.59;1662067;86;20912;-75
2021/11/25 07:40:17;;;;;;;34.40;17.55;;;;;;;2.21;88.99;100018.80;1689281;83;21467;-67
2021/11/25 07:42:52;;;;;;;27.93;15.98;;;;;;;2.21;88.70;100028.29;1665739;84;21018;-66
2021/11/25 07:45:23;;;;;;;31.25;17.62;;;;;;;2.19;88.73;100021.77;1630915;84;21861;-68
2021/11/25 07:47:56;;;;;;;29.92;17.10;;;;;;;2.18;88.83;100018.77;1664198;85;20881;-68
2021/11/25 07:50:32;;;;;;;30.15;18.00;;;;;;;2.20;89.05;100018.52;1665096;86;20956;-68
2021/11/25 07:53:00;;;;;;;32.65;17.37;;;;;;;2.23;88.85;100013.96;1714720;81;21018;-71
2021/11/25 07:55:33;;;;;;;30.68;17.92;;;;;;;2.22;88.78;100008.25;1665243;86;21032;-71
2021/11/25 07:58:03;;;;;;;30.08;18.35;;;;;;;2.20;88.82;100016.63;1657303;86;21824;-70
2021/11/25 08:00:33;;;;;;;32.20;18.07;;;;;;;2.23;88.98;100019.38;1713710;82;21010;-71
2021/11/25 08:03:05;;;;;;;36.40;19.77;;;;;;;2.23;88.97;100015.31;1698692;83;21016;-68
2021/11/25 08:05:33;;;;;;;32.90;18.32;;;;;;;2.24;88.87;100021.02;1690716;83;21028;-68
2021/11/25 08:08:09;;;;;;;33.65;19.42;;;;;;;2.26;88.80;100016.98;1693246;84;20947;-67
2021/11/25 08:10:39;;;;;;;37.78;20.57;;;;;;;2.36;88.85;100015.46;1690332;84;20994;-70
2021/11/25 08:13:06;;;;;;;35.03;19.02;;;;;;;2.36;88.85;100015.46;1694614;83;20958;-70
2021/11/25 08:15:35;;;;;;;41.15;18.65;;;;;;;2.37;88.70;100012.50;1708700;83;20903;-69
2021/11/25 08:18:08;;;;;;;34.40;19.65;;;;;;;2.38;88.36;100013.32;1680008;84;20895;-67
2021/11/25 08:20:38;;;;;;;28.83;17.87;;;;;;;2.36;88.36;100010.86;1686254;83;21006;-65
2021/11/25 08:23:13;;;;;;;36.28;20.30;;;;;;;2.38;88.62;100008.72;1722048;82;20994;-64
2021/11/25 08:25:44;;;;;;;33.35;19.73;;;;;;;2.39;88.48;100002.77;1695352;83;20943;-64
2021/11/25 08:28:18;;;;;;;;;;;;;;;2.41;88.51;100001.98;1716456;82;20969;-65
2021/11/25 08:30:46;;;;;;;34.00;18.42;;;;;;;2.43;88.38;100006.08;1714090;81;20121;-67
2021/11/25 08:33:16;;;;;;;35.88;18.87;;;;;;;2.45;88.37;100004.47;1723377;81;20943;-68
2021/11/25 08:35:52;;;;;;;36.03;20.62;;;;;;;2.49;88.22;100001.02;1695482;83;20955;-67
2021/11/25 08:38:30;;;;;;;42.15;21.05;;;;;;;2.52;88.27;100010.53;1721395;81;20995;-68
2021/11/25 08:41:00;;;;;;;35.75;19.42;;;;;;;2.55;88.19;100006.78;1707563;83;21052;-68
2021/11/25 08:43:32;;;;;;;32.83;19.40;;;;;;;2.61;87.86;100000.36;1684072;83;21617;-68
2021/11/25 08:46:02;;;;;;;32.88;18.17;;;;;;;2.65;87.78;99999.31;1636294;85;21519;-66
2021/11/25 08:48:29;;;;;;;35.28;20.57;;;;;;;2.67;87.23;99991.75;1675438;83;20968;-67
2021/11/25 08:51:04;;;;;;;36.48;18.48;;;;;;;2.68;87.17;99981.72;1678152;83;21582;-67
2021/11/25 08:53:36;;;;;;;36.58;19.00;;;;;;;2.69;86.87;99986.89;1701049;83;20888;-67
2021/11/25 08:56:05;;;;;;;37.17;21.37;;;;;;;2.72;86.73;99987.74;1664632;84;21141;-69
2021/11/25 08:58:41;;;;;;;38.00;21.40;;;;;;;2.75;86.41;99977.75;1663319;84;20860;-73
2021/11/25 09:01:12;;;;;;;35.68;20.35;;;;;;;2.79;86.58;99969.92;1656084;86;21177;-67
2021/11/25 09:03:43;;;;;;;35.03;20.08;;;;;;;2.90;86.58;99963.51;1653967;86;21631;-65
2021/11/25 09:06:13;;;;;;;37.78;21.12;;;;;;;2.93;86.38;99967.07;1670961;84;20902;-68
2021/11/25 09:08:50;;;;;;;35.80;21.35;;;;;;;2.94;85.77;99964.64;1675157;83;21561;-69
2021/11/25 09:11:39;;;;;;;45.17;22.77;;;;;;;2.94;85.77;99964.64;1700309;81;21047;-69
2021/11/25 09:14:10;;;;;;;32.55;19.60;;;;;;;2.93;85.64;99961.11;1635706;85;21027;-69
2021/11/25 09:16:39;;;;;;;39.63;20.12;;;;;;;2.97;85.57;99965.48;1707869;82;20998;-67
2021/11/25 09:19:09;;;;;;;33.13;18.85;;;;;;;2.98;85.41;99959.80;1690308;83;21003;-68
2021/11/25 09:21:45;;;;;;;28.87;17.12;;;;;;;3.00;85.40;99956.84;1694689;84;21542;-68
2021/11/25 09:24:20;;;;;;;32.23;17.35;;;;;;;3.02;84.52;99936.23;1694343;84;20955;-67
2021/11/25 09:26:51;;;;;;;32.35;18.65;;;;;;;3.02;84.43;99938.41;1637301;85;21050;-68
2021/11/25 09:29:21;;;;;;;30.15;17.20;;;;;;;3.05;84.39;99933.02;1694685;84;20916;-65
2021/11/25 09:31:50;;;;;;;26.40;16.37;;;;;;;3.08;84.27;99929.25;1663300;84;21061;-65
2021/11/25 09:34:20;;;;;;;33.83;17.98;;;;;;;3.13;83.75;99935.27;1655983;84;20971;-67
2021/11/25 09:36:49;;;;;;;33.67;17.57;;;;;;;3.17;83.87;99936.39;1701743;83;20991;-67
2021/11/25 09:39:25;;;;;;;29.87;17.12;;;;;;;3.18;83.61;99925.27;1722581;81;21116;-66
2021/11/25 09:41:56;;;;;;;32.75;16.55;;;;;;;3.24;83.04;99926.96;1696310;83;20995;-66
2021/11/25 09:44:25;;;;;;;31.25;17.15;;;;;;;3.28;81.97;99910.44;1720308;81;20901;-66
2021/11/25 09:47:05;;;;;;;33.70;17.95;;;;;;;3.30;82.26;99909.64;1692458;81;21023;-67
2021/11/25 09:49:28;;;;;;;29.07;16.67;;;;;;;3.30;82.26;99909.64;1692404;83;21068;-66
2021/11/25 09:51:57;;;;;;;29.98;16.80;;;;;;;3.39;82.04;99913.23;1723420;81;21089;-70
2021/11/25 09:54:24;;;;;;;24.00;13.93;;;;;;;3.46;81.36;99911.94;1723557;83;21447;-69
2021/11/25 09:56:56;;;;;;;24.90;14.30;;;;;;;3.49;79.87;99905.97;1723319;81;20982;-69
2021/11/25 09:59:25;;;;;;;22.37;13.83;;;;;;;3.51;79.15;99903.80;1726027;82;20954;-69
2021/11/25 10:02:01;;;;;;;24.52;13.88;;;;;;;3.53;77.42;99902.19;1716575;81;21011;-70
2021/11/25 10:04:31;;;;;;;;;;;;;;;3.53;77.42;99902.19;1724014;81;21843;-70
2021/11/25 10:07:03;;;;;;;23.95;13.62;;;;;;;3.54;77.18;99895.69;1725393;82;20552;-68
2021/11/25 10:09:38;;;;;;;34.48;14.03;;;;;;;3.55;77.43;99893.24;1705654;82;21406;-70
2021/11/25 10:12:33;;;;;;;23.70;14.80;;;;;;;3.60;77.90;99894.64;1694029;83;20922;-69
2021/11/25 10:15:33;;;;;;;27.50;14.33;;;;;;;3.65;77.45;99889.24;1710366;83;20891;-67
2021/11/25 10:18:17;;;;;;;24.10;11.75;;;;;;;3.72;74.05;99888.47;1701999;84;20847;-68
2021/11/25 10:20:52;;;;;;;19.12;11.18;;;;;;;3.72;74.05;99888.47;1698908;84;20899;-66
2021/11/25 10:23:26;;;;;;;21.17;11.35;;;;;;;3.68;73.46;99891.44;1699661;83;20921;-67
2021/11/25 10:26:13;;;;;;;16.95;9.63;;;;;;;3.64;72.94;99884.35;1694701;84;21407;-67
2021/11/25 10:28:51;;;;;;;16.02;10.20;;;;;;;3.64;72.30;99873.49;1663811;83;21012;-67
2021/11/25 10:31:23;;;;;;;13.40;9.15;;;;;;;3.64;72.07;99868.60;1657120;85;21191;-65
2021/11/25 10:34:03;;;;;;;11.63;7.80;;;;;;;3.61;70.92;99865.05;1683482;84;21008;-66
2021/11/25 10:42:36;;;;;;;13.05;8.53;;;;;;;3.51;68.08;99862.27;1683517;83;20917;-66
2021/11/25 10:45:09;;;;;;;14.50;9.30;;;;;;;3.51;68.08;99862.27;1725111;82;21852;-67
2021/11/25 10:47:38;;;;;;;;;;;;;;;3.51;67.75;99854.13;1726327;82;20935;-66
2021/11/25 10:50:19;;;;;;;17.98;8.33;;;;;;;3.50;66.91;99848.42;1711733;82;20124;-66
2021/11/25 10:52:48;;;;;;;18.12;7.58;;;;;;;3.43;65.52;99840.54;1708031;83;20991;-64
2021/11/25 10:55:21;;;;;;;17.02;8.63;;;;;;;3.43;65.52;99840.54;1708198;84;20991;-64
2021/11/25 10:57:52;;;;;;;;;;;;;;;3.41;64.95;99841.34;1718390;81;21136;-65
2021/11/25 11:00:37;;;;;;;16.85;8.05;;;;;;;3.39;65.07;99821.78;1713877;82;20176;-65
2021/11/25 11:03:13;;;;;;;13.32;8.35;;;;;;;3.37;65.31;99820.41;1721673;83;20916;-66
2021/11/25 11:06:01;;;;;;;15.15;8.23;;;;;;;3.35;65.84;99809.82;1716839;81;20956;-65
2021/11/25 11:08:42;;;;;;;16.25;9.40;;;;;;;3.36;65.16;99814.17;1731801;82;21809;-66
2021/11/25 11:11:15;;;;;;;13.22;8.00;;;;;;;3.39;65.92;99801.44;1727853;82;21153;-66
2021/11/25 11:13:59;;;;;;;15.03;9.15;;;;;;;3.39;65.92;99801.44;1721551;82;20914;-65
2021/11/25 11:16:31;;;;;;;12.43;8.73;;;;;;;3.39;65.66;99794.65;1717940;81;20947;-66
2021/11/25 11:19:03;;;;;;;16.55;8.90;;;;;;;3.39;66.07;99800.61;1723421;81;20994;-65
2021/11/25 11:21:51;;;;;;;16.12;9.83;;;;;;;3.41;66.33;99799.81;1721042;82;20991;-66
2021/11/25 11:24:26;;;;;;;17.52;9.53;;;;;;;3.42;67.04;99799.55;1723607;81;21855;-65
2021/11/25 11:27:07;;;;;;;18.25;9.30;;;;;;;3.46;66.75;99797.13;1649520;83;21026;-66
2021/11/25 11:29:40;;;;;;;17.55;9.53;;;;;;;3.42;65.49;99798.73;1727232;81;21512;-65
2021/11/25 11:32:09;;;;;;;19.65;10.30;;;;;;;3.34;65.73;99793.80;1720342;82;21022;-65
2021/11/25 11:34:38;;;;;;;17.55;9.43;;;;;;;3.28;66.24;99797.84;1723596;83;20947;-65
2021/11/25 11:37:10;;;;;;;17.50;10.48;;;;;;;3.24;66.47;99784.52;1695197;83;20995;-65
2021/11/25 11:39:39;;;;;;;17.25;8.55;;;;;;;3.20;67.24;99788.83;1699045;83;20959;-67
2021/11/25 11:42:11;;;;;;;18.80;10.18;;;;;;;3.16;67.27;99779.58;1718592;82;21047;-65